createdAt,value
2019-01-27T00:03:33.648Z,13.10
2019-01-27T00:08:38.448Z,12.30
2019-01-27T00:13:44.129Z,11.77
2019-01-27T00:18:48.825Z,11.83
2019-01-27T00:23:53.642Z,12.30
2019-01-27T00:28:58.604Z,11.67
2019-01-27T00:34:03.401Z,10.90
2019-01-27T00:39:10.012Z,11.07
2019-01-27T00:44:14.755Z,9.80
2019-01-27T00:49:19.423Z,10.47
2019-01-27T00:54:24.101Z,8.53
2019-01-27T00:59:28.871Z,8.47
2019-01-27T01:04:33.574Z,9.20
2019-01-27T01:09:38.278Z,8.33
2019-01-27T01:14:43.106Z,8.70
2019-01-27T01:19:48.236Z,8.23
2019-01-27T01:24:53.222Z,8.40
2019-01-27T01:29:57.934Z,8.67
2019-01-27T01:35:02.708Z,9.43
2019-01-27T01:40:09.780Z,9.67
2019-01-27T01:45:17.646Z,9.30
2019-01-27T01:50:22.822Z,9.23
2019-01-27T01:55:27.675Z,9.53
2019-01-27T02:00:32.426Z,9.67
2019-01-27T02:05:37.133Z,9.40
2019-01-27T02:10:41.855Z,9.20
2019-01-27T02:16:06.921Z,9.27
2019-01-27T02:21:11.754Z,9.27
2019-01-27T02:26:16.433Z,8.50
2019-01-27T02:31:21.143Z,9.07
2019-01-27T02:36:25.807Z,8.30
2019-01-27T02:41:30.468Z,8.37
2019-01-27T02:46:35.156Z,8.10
2019-01-27T02:51:40.041Z,7.97
2019-01-27T02:56:45.728Z,7.60
2019-01-27T03:01:50.746Z,7.67
2019-01-27T03:07:06.553Z,7.23
2019-01-27T03:12:11.276Z,7.42
2019-01-27T03:17:18.800Z,6.93
2019-01-27T03:22:23.511Z,6.85
2019-01-27T03:27:28.264Z,6.77
2019-01-27T03:32:32.943Z,6.80
2019-01-27T03:37:37.622Z,6.47
2019-01-27T03:42:42.357Z,6.87
2019-01-27T03:47:47.141Z,6.80
2019-01-27T03:52:51.935Z,6.80
2019-01-27T03:57:56.680Z,6.73
2019-01-27T04:03:01.352Z,6.17
2019-01-27T04:08:06.233Z,5.97
2019-01-27T04:13:10.885Z,6.10
2019-01-27T04:18:15.565Z,5.90
2019-01-27T04:23:20.296Z,5.50
2019-01-27T04:28:24.959Z,5.20
2019-01-27T04:33:29.612Z,4.87
2019-01-27T04:38:34.315Z,5.63
2019-01-27T04:43:39.116Z,5.57
2019-01-27T04:48:43.872Z,5.50
2019-01-27T04:53:48.787Z,5.17
2019-01-27T04:58:53.439Z,5.17
2019-01-27T05:04:17.185Z,5.23
2019-01-27T05:09:21.903Z,5.60
2019-01-27T05:14:26.591Z,5.80
2019-01-27T05:19:31.261Z,5.17
2019-01-27T05:24:35.961Z,5.50
2019-01-27T05:29:40.650Z,4.83
2019-01-27T05:34:45.240Z,4.83
2019-01-27T05:39:49.936Z,5.30
2019-01-27T05:44:54.586Z,4.77
2019-01-27T05:49:59.231Z,4.63
2019-01-27T05:55:05.137Z,4.63
2019-01-27T06:00:16.316Z,4.10
2019-01-27T06:05:20.962Z,4.53
2019-01-27T06:10:25.634Z,4.25
2019-01-27T06:15:30.310Z,4.37
2019-01-27T06:20:34.960Z,4.80
2019-01-27T06:25:39.664Z,4.63
2019-01-27T06:30:44.388Z,4.50
2019-01-27T06:35:49.033Z,4.23
2019-01-27T06:40:53.806Z,4.10
2019-01-27T06:45:58.425Z,4.20
2019-01-27T06:51:03.140Z,3.90
2019-01-27T06:56:07.862Z,3.83
2019-01-27T07:01:22.259Z,3.90
2019-01-27T07:06:43.074Z,4.20
2019-01-27T07:12:05.244Z,4.27
2019-01-27T07:17:29.881Z,4.13
2019-01-27T07:22:39.668Z,3.90
2019-01-27T07:28:09.303Z,4.00
2019-01-27T07:33:31.575Z,3.60
2019-01-27T07:39:04.443Z,4.20
2019-01-27T07:44:14.437Z,3.77
2019-01-27T07:49:27.135Z,3.63
2019-01-27T07:54:51.199Z,3.97
2019-01-27T08:00:13.564Z,3.90
2019-01-27T08:05:39.999Z,3.50
2019-01-27T08:11:22.011Z,3.33
2019-01-27T08:16:40.460Z,3.53
2019-01-27T08:21:53.034Z,3.47
2019-01-27T08:27:09.331Z,4.00
2019-01-27T08:32:28.204Z,4.90
2019-01-27T08:37:41.820Z,3.50
2019-01-27T08:42:55.445Z,3.58
2019-01-27T08:48:00.132Z,3.20
2019-01-27T08:53:05.066Z,3.13
2019-01-27T08:58:09.748Z,3.50
2019-01-27T09:03:36.330Z,3.53
2019-01-27T09:08:56.952Z,3.70
2019-01-27T09:14:32.889Z,3.40
2019-01-27T09:19:55.180Z,3.37
2019-01-27T09:25:08.898Z,3.50
2019-01-27T09:30:30.364Z,3.13
2019-01-27T09:35:45.983Z,2.53
2019-01-27T09:41:01.326Z,2.90
2019-01-27T09:46:26.200Z,2.90
2019-01-27T09:51:35.681Z,2.60
2019-01-27T09:56:58.579Z,2.93
2019-01-27T10:02:21.260Z,2.40
2019-01-27T10:07:33.569Z,2.23
2019-01-27T10:12:52.102Z,2.50
2019-01-27T10:18:08.992Z,2.67
2019-01-27T10:23:34.843Z,2.63
2019-01-27T10:29:01.451Z,2.10
2019-01-27T10:34:14.458Z,2.40
2019-01-27T10:39:27.424Z,2.25
2019-01-27T10:44:43.058Z,2.10
2019-01-27T10:50:08.502Z,2.30
2019-01-27T10:55:40.241Z,2.00
2019-01-27T11:01:09.695Z,1.90
2019-01-27T11:06:26.411Z,1.75
2019-01-27T11:12:05.798Z,2.00
2019-01-27T11:17:18.783Z,2.10
2019-01-27T11:22:45.318Z,1.90
2019-01-27T11:28:14.948Z,2.23
2019-01-27T11:33:37.767Z,1.87
2019-01-27T11:39:07.425Z,1.70
2019-01-27T11:44:29.681Z,1.80
2019-01-27T11:49:47.082Z,2.07
2019-01-27T11:54:51.825Z,2.00
2019-01-27T11:59:56.493Z,2.00
2019-01-27T12:05:01.201Z,1.90
2019-01-27T12:10:07.928Z,2.20
2019-01-27T12:15:15.709Z,2.00
2019-01-27T12:20:20.500Z,2.07
2019-01-27T12:25:25.515Z,2.30
2019-01-27T12:30:30.220Z,2.00
2019-01-27T12:35:34.912Z,2.50
2019-01-27T12:40:39.604Z,2.40
2019-01-27T12:45:44.297Z,2.10
2019-01-27T12:50:49.027Z,1.87
2019-01-27T12:55:53.779Z,1.50
2019-01-27T13:01:02.138Z,2.10
2019-01-27T13:06:07.108Z,1.93
2019-01-27T13:11:11.783Z,1.80
2019-01-27T13:16:16.453Z,2.03
2019-01-27T13:21:21.115Z,1.90
2019-01-27T13:26:26.141Z,1.90
2019-01-27T13:31:31.012Z,2.03
2019-01-27T13:36:35.856Z,1.87
2019-01-27T13:41:40.583Z,1.60
2019-01-27T13:46:45.315Z,1.70
2019-01-27T13:51:50.016Z,1.73
2019-01-27T13:56:54.753Z,1.80
2019-01-27T14:01:59.628Z,1.93
2019-01-27T14:07:04.517Z,1.60
2019-01-27T14:12:09.471Z,1.40
2019-01-27T14:17:14.730Z,2.03
2019-01-27T14:22:19.423Z,1.50
2019-01-27T14:27:24.136Z,1.87
2019-01-27T14:32:28.886Z,1.90
2019-01-27T14:37:33.711Z,2.10
2019-01-27T14:42:38.605Z,1.80
2019-01-27T14:47:43.426Z,1.60
2019-01-27T14:52:48.251Z,1.70
2019-01-27T14:57:52.992Z,1.63
2019-01-27T15:02:58.299Z,1.93
2019-01-27T15:08:03.283Z,1.80
2019-01-27T15:13:09.128Z,1.70
2019-01-27T15:18:13.951Z,1.80
2019-01-27T15:23:18.642Z,1.80
2019-01-27T15:28:23.404Z,2.30
2019-01-27T15:33:28.101Z,2.07
2019-01-27T15:38:32.790Z,2.20
2019-01-27T15:43:37.613Z,3.00
2019-01-27T15:48:42.433Z,2.90
2019-01-27T15:53:47.102Z,2.80
2019-01-27T15:58:51.775Z,2.10
2019-01-27T16:03:56.737Z,1.70
2019-01-27T16:09:01.415Z,2.07
2019-01-27T16:14:07.990Z,1.90
2019-01-27T16:19:12.689Z,2.27
2019-01-27T16:24:22.023Z,2.63
2019-01-27T16:29:48.868Z,2.60
2019-01-27T16:34:58.342Z,3.27
2019-01-27T16:40:03.233Z,4.10
2019-01-27T16:45:09.953Z,3.20
2019-01-27T16:50:15.697Z,2.00
2019-01-27T16:55:20.688Z,4.57
2019-01-27T17:00:26.986Z,7.50
2019-01-27T17:05:31.667Z,4.10
2019-01-27T17:10:36.603Z,2.63
2019-01-27T17:15:41.469Z,3.07
2019-01-27T17:20:46.149Z,2.57
2019-01-27T17:25:53.645Z,2.30
2019-01-27T17:30:57.214Z,2.60
2019-01-27T17:36:02.064Z,2.30
2019-01-27T17:41:08.037Z,2.00
2019-01-27T17:46:12.952Z,1.77
2019-01-27T17:51:17.768Z,1.97
2019-01-27T17:56:22.448Z,2.27
2019-01-27T18:01:46.269Z,1.90
2019-01-27T18:07:02.958Z,2.30
2019-01-27T18:12:13.243Z,2.10
2019-01-27T18:17:18.158Z,2.45
2019-01-27T18:22:23.042Z,2.30
2019-01-27T18:27:27.816Z,1.90
2019-01-27T18:32:32.513Z,2.10
2019-01-27T18:37:37.470Z,2.10
2019-01-27T18:42:42.224Z,2.07
2019-01-27T18:47:46.990Z,1.60
2019-01-27T18:53:07.617Z,2.20
2019-01-27T18:58:30.297Z,1.83
2019-01-27T19:03:44.353Z,2.10
2019-01-27T19:09:06.957Z,1.87
2019-01-27T19:14:33.919Z,1.80
2019-01-27T19:19:45.740Z,2.00
2019-01-27T19:25:08.308Z,2.00
2019-01-27T19:30:37.560Z,1.93
2019-01-27T19:35:50.768Z,2.10
2019-01-27T19:41:23.563Z,1.90
2019-01-27T19:46:45.995Z,1.87
2019-01-27T19:52:08.746Z,2.10
2019-01-27T19:57:32.679Z,2.20
2019-01-27T20:03:07.522Z,2.20
2019-01-27T20:08:28.858Z,2.30
2019-01-27T20:13:44.676Z,2.23
2019-01-27T20:19:07.115Z,2.07
2019-01-27T20:24:36.836Z,2.00
2019-01-27T20:29:56.204Z,2.07
2019-01-27T20:35:24.337Z,2.20
2019-01-27T20:40:57.324Z,1.87
2019-01-27T20:46:15.388Z,1.90
2019-01-27T20:51:35.073Z,2.00
2019-01-27T20:57:14.091Z,1.80
2019-01-27T21:02:27.502Z,1.95
2019-01-27T21:08:00.430Z,2.00
2019-01-27T21:13:24.083Z,1.93
2019-01-27T21:18:32.572Z,2.17
2019-01-27T21:23:37.280Z,2.17
2019-01-27T21:28:41.964Z,2.00
2019-01-27T21:33:47.707Z,1.90
2019-01-27T21:38:52.716Z,2.13
2019-01-27T21:43:57.480Z,2.07
2019-01-27T21:49:02.153Z,1.90
2019-01-27T21:54:06.942Z,2.03
2019-01-27T21:59:11.692Z,2.20
2019-01-27T22:04:16.470Z,2.30
2019-01-27T22:09:21.144Z,2.00
2019-01-27T22:14:25.826Z,2.27
2019-01-27T22:19:30.494Z,2.10
2019-01-27T22:24:35.152Z,2.00
2019-01-27T22:29:40.138Z,2.50
2019-01-27T22:34:44.810Z,2.20
2019-01-27T22:39:49.745Z,2.60
2019-01-27T22:44:54.415Z,2.20
2019-01-27T22:49:59.115Z,2.73
2019-01-27T22:55:05.475Z,2.50
2019-01-27T23:00:51.340Z,2.27
2019-01-27T23:05:55.999Z,2.13
2019-01-27T23:11:00.801Z,2.10
2019-01-27T23:16:05.707Z,2.40
2019-01-27T23:21:10.476Z,2.20
2019-01-27T23:26:15.138Z,2.33
2019-01-27T23:31:19.865Z,2.40
2019-01-27T23:36:25.052Z,2.47
2019-01-27T23:41:29.715Z,2.13
2019-01-27T23:46:35.453Z,2.77
2019-01-27T23:51:40.191Z,2.53
2019-01-27T23:56:44.860Z,2.83
